Terminal Aerodrome Forecast
Issued by NWS Buffalo, NY

Home | Current Version | Previous Version | Text Only | Print | Product List | Glossary On
Versions: 1 2 3 4 5 6 7 8 9 10 11 12 13 14 15 16 17 18 19 20 21 22 23 24 25 26 27 28 29 30
000
FTUS41 KBUF 301441 AAA
TAFBUF
TAF AMD
KBUF 301441Z 3015/0112 16008KT P6SM VCSH OVC025
     FM301600 19009KT P6SM OVC035
     FM301800 23009KT P6SM -TSRA OVC025CB
     FM302000 23009KT P6SM VCSH BKN040
     FM010300 21006KT P6SM VCSH BKN050
     FM011000 22007KT P6SM VCSH OVC015=

USA.gov is the U.S. government's official web portal to all federal, state and local government web resources and services.